PWSweather.com
Personal Weather Stations
Station Observations
PALOALTOCA
Palo Verde, Palo Alto, CA 94303

Palo VerdePalo Alto, CA 94303

Lat: 37.431491, Lon: -122.110886

Elevation: 24

Station Type: RainWise MKIII-LR

Latest ConditionsUpdated 4:40:00 PM PDT Monday, Oct 21, 2019
Currently Today's Max Today's Min Today's Average
Temperature 84.2°F29.0°C 85.1°F29.5°C 46.7°F8.2°C 61.7°F16.5°C
Dew Point 47.6°F8.7°C 60.1°F15.6°C 45.4°F7.4°C 49.3°F9.6°C
Winds 2.6 mph W4.2 kmh W 3.7 mph -6.0 kmh - - 0.9 mph 1.4 kmh
Wind Gusts 10.3 mph16.6 kmh 10.3 mph16.6 kmh - -
Humidity 28% 97% 28% 71%
Pressure 30.09 in1019.0 mb 30.19 in1022.4 mb 30.09 in1019.0 mb -
Hour Temp Dew Point Humidity Winds Wind Gusts Pressure Precip Precip Rate Daily Precip Total
04:40 PM 84.2°F29.0°C 47.6°F8.7°C 28% 2.6 mph W4.2 kmh W 10.3 mph16.6 kmh 30.09 in1019.0 mb 0.00 in0.0 mm 0.00 in0.0 mm 0.00 in0.0 mm
04:35 PM 84.3°F29.1°C 47.6°F8.7°C 28% 1.7 mph WNW2.7 kmh WNW 6.8 mph10.9 kmh 30.09 in1019.0 mb 0.00 in0.0 mm 0.00 in0.0 mm 0.00 in0.0 mm
04:30 PM 84.1°F28.9°C 48.0°F8.9°C 29% 2.7 mph W4.3 kmh W 6.3 mph10.1 kmh 30.09 in1019.0 mb 0.00 in0.0 mm 0.00 in0.0 mm 0.00 in0.0 mm
04:25 PM 83.7°F28.7°C 48.0°F8.9°C 29% 1.2 mph WNW1.9 kmh WNW 4.4 mph7.1 kmh 30.09 in1019.0 mb 0.00 in0.0 mm 0.00 in0.0 mm 0.00 in0.0 mm
04:20 PM 83.6°F28.7°C 48.0°F8.9°C 29% 2.8 mph W4.5 kmh W 5.8 mph9.3 kmh 30.09 in1019.0 mb 0.00 in0.0 mm 0.00 in0.0 mm 0.00 in0.0 mm
04:15 PM 83.6°F28.7°C 48.0°F8.9°C 29% 2.0 mph W3.2 kmh W 5.8 mph9.3 kmh 30.09 in1019.0 mb 0.00 in0.0 mm 0.00 in0.0 mm 0.00 in0.0 mm
04:10 PM 83.7°F28.7°C 48.0°F8.9°C 29% 3.7 mph WSW6.0 kmh WSW 8.2 mph13.2 kmh 30.09 in1019.0 mb 0.00 in0.0 mm 0.00 in0.0 mm 0.00 in0.0 mm
04:05 PM 83.6°F28.7°C 47.1°F8.4°C 28% 2.4 mph W3.9 kmh W 8.6 mph13.8 kmh 30.09 in1019.0 mb 0.00 in0.0 mm 0.00 in0.0 mm 0.00 in0.0 mm
04:00 PM 84.3°F29.1°C 47.6°F8.7°C 28% 2.9 mph W4.7 kmh W 6.8 mph10.9 kmh 30.09 in1019.0 mb 0.00 in0.0 mm 0.00 in0.0 mm 0.00 in0.0 mm
03:55 PM 85.0°F29.4°C 48.2°F9.0°C 28% 3.7 mph W6.0 kmh W 8.6 mph13.8 kmh 30.09 in1019.0 mb 0.00 in0.0 mm 0.00 in0.0 mm 0.00 in0.0 mm
03:50 PM 85.1°F29.5°C 48.3°F9.1°C 28% 1.9 mph NNW3.1 kmh NNW 6.1 mph9.8 kmh 30.09 in1019.0 mb 0.00 in0.0 mm 0.00 in0.0 mm 0.00 in0.0 mm
03:45 PM 85.0°F29.4°C 48.2°F9.0°C 28% 2.6 mph NW4.2 kmh NW 6.1 mph9.8 kmh 30.09 in1019.0 mb 0.00 in0.0 mm 0.00 in0.0 mm 0.00 in0.0 mm
03:40 PM 84.8°F29.3°C 49.0°F9.4°C 29% 1.8 mph NW2.9 kmh NW 5.4 mph8.7 kmh 30.09 in1019.0 mb 0.00 in0.0 mm 0.00 in0.0 mm 0.00 in0.0 mm
03:35 PM 84.3°F29.1°C 48.6°F9.2°C 29% 2.6 mph NNW4.2 kmh NNW 7.0 mph11.3 kmh 30.09 in1019.0 mb 0.00 in0.0 mm 0.00 in0.0 mm 0.00 in0.0 mm
03:30 PM 83.7°F28.7°C 48.0°F8.9°C 29% 1.2 mph NNW1.9 kmh NNW 5.4 mph8.7 kmh 30.09 in1019.0 mb 0.00 in0.0 mm 0.00 in0.0 mm 0.00 in0.0 mm
03:25 PM 83.6°F28.7°C 47.9°F8.8°C 29% 3.0 mph W4.8 kmh W 7.2 mph11.6 kmh 30.09 in1019.0 mb 0.00 in0.0 mm 0.00 in0.0 mm 0.00 in0.0 mm
03:20 PM 83.7°F28.7°C 48.1°F8.9°C 29% 2.7 mph NW4.3 kmh NW 6.3 mph10.1 kmh 30.09 in1019.0 mb 0.00 in0.0 mm 0.00 in0.0 mm 0.00 in0.0 mm
03:15 PM 84.0°F28.9°C 48.3°F9.1°C 29% 2.8 mph WNW4.5 kmh WNW 7.2 mph11.6 kmh 30.09 in1019.0 mb 0.00 in0.0 mm 0.00 in0.0 mm 0.00 in0.0 mm
03:10 PM 84.0°F28.9°C 49.2°F9.6°C 30% 2.6 mph NNW4.2 kmh NNW 7.2 mph11.6 kmh 30.09 in1019.0 mb 0.00 in0.0 mm 0.00 in0.0 mm 0.00 in0.0 mm
03:05 PM 83.6°F28.7°C 48.9°F9.4°C 30% 1.8 mph NNW2.9 kmh NNW 5.8 mph9.3 kmh 30.09 in1019.0 mb 0.00 in0.0 mm 0.00 in0.0 mm 0.00 in0.0 mm
03:00 PM 83.4°F28.6°C 48.7°F9.3°C 30% 3.1 mph N5.0 kmh N 7.2 mph11.6 kmh 30.09 in1019.0 mb 0.00 in0.0 mm 0.00 in0.0 mm 0.00 in0.0 mm
02:55 PM 83.5°F28.6°C 48.8°F9.3°C 30% 1.8 mph WNW2.9 kmh WNW 4.9 mph7.9 kmh 30.09 in1019.0 mb 0.00 in0.0 mm 0.00 in0.0 mm 0.00 in0.0 mm
02:50 PM 83.4°F28.6°C 49.0°F9.4°C 30% 2.9 mph NNW4.7 kmh NNW 6.3 mph10.1 kmh 30.10 in1019.3 mb 0.00 in0.0 mm 0.00 in0.0 mm 0.00 in0.0 mm
02:45 PM 83.0°F28.3°C 49.2°F9.6°C 31% 2.2 mph N3.5 kmh N 6.3 mph10.1 kmh 30.10 in1019.3 mb 0.00 in0.0 mm 0.00 in0.0 mm 0.00 in0.0 mm
02:40 PM 82.5°F28.1°C 48.8°F9.3°C 31% 2.1 mph NW3.4 kmh NW 5.4 mph8.7 kmh 30.10 in1019.3 mb 0.00 in0.0 mm 0.00 in0.0 mm 0.00 in0.0 mm
02:35 PM 82.3°F27.9°C 48.7°F9.3°C 31% 2.4 mph NNW3.9 kmh NNW 7.0 mph11.3 kmh 30.11 in1019.6 mb 0.00 in0.0 mm 0.00 in0.0 mm 0.00 in0.0 mm
02:30 PM 82.0°F27.8°C 49.2°F9.6°C 32% 3.4 mph NNW5.5 kmh NNW 9.6 mph15.4 kmh 30.11 in1019.6 mb 0.00 in0.0 mm 0.00 in0.0 mm 0.00 in0.0 mm
02:25 PM 81.6°F27.6°C 48.8°F9.3°C 32% 1.8 mph N2.9 kmh N 5.6 mph9.0 kmh 30.11 in1019.6 mb 0.00 in0.0 mm 0.00 in0.0 mm 0.00 in0.0 mm
02:20 PM 81.3°F27.4°C 48.6°F9.2°C 32% 2.7 mph NNW4.3 kmh NNW 6.5 mph10.5 kmh 30.11 in1019.6 mb 0.00 in0.0 mm 0.00 in0.0 mm 0.00 in0.0 mm
02:15 PM 81.3°F27.4°C 48.6°F9.2°C 32% 2.6 mph WNW4.2 kmh WNW 6.1 mph9.8 kmh 30.11 in1019.6 mb 0.00 in0.0 mm 0.00 in0.0 mm 0.00 in0.0 mm
02:10 PM 80.9°F27.2°C 48.3°F9.1°C 32% 3.2 mph NNW5.1 kmh NNW 7.7 mph12.4 kmh 30.11 in1019.6 mb 0.00 in0.0 mm 0.00 in0.0 mm 0.00 in0.0 mm
02:05 PM 80.3°F26.8°C 47.7°F8.7°C 32% 1.6 mph NW2.6 kmh NW 6.8 mph10.9 kmh 30.11 in1019.6 mb 0.00 in0.0 mm 0.00 in0.0 mm 0.00 in0.0 mm
02:00 PM 80.4°F26.9°C 47.8°F8.8°C 32% 3.2 mph WNW5.1 kmh WNW 7.5 mph12.1 kmh 30.11 in1019.6 mb 0.00 in0.0 mm 0.00 in0.0 mm 0.00 in0.0 mm
01:55 PM 80.8°F27.1°C 48.6°F9.2°C 33% 2.3 mph W3.7 kmh W 8.2 mph13.2 kmh 30.12 in1020.0 mb 0.00 in0.0 mm 0.00 in0.0 mm 0.00 in0.0 mm
01:50 PM 80.9°F27.2°C 49.1°F9.5°C 33% 1.9 mph WNW3.1 kmh WNW 5.8 mph9.3 kmh 30.12 in1020.0 mb 0.00 in0.0 mm 0.00 in0.0 mm 0.00 in0.0 mm
01:45 PM 80.6°F27.0°C 49.7°F9.8°C 34% 3.0 mph N4.8 kmh N 8.2 mph13.2 kmh 30.12 in1020.0 mb 0.00 in0.0 mm 0.00 in0.0 mm 0.00 in0.0 mm
01:40 PM 80.2°F26.8°C 50.1°F10.1°C 35% 1.4 mph W2.3 kmh W 4.0 mph6.4 kmh 30.12 in1020.0 mb 0.00 in0.0 mm 0.00 in0.0 mm 0.00 in0.0 mm
01:35 PM 80.0°F26.7°C 50.0°F10.0°C 35% 2.0 mph NW3.2 kmh NW 5.4 mph8.7 kmh 30.13 in1020.3 mb 0.00 in0.0 mm 0.00 in0.0 mm 0.00 in0.0 mm
01:30 PM 79.7°F26.5°C 50.3°F10.2°C 36% 2.1 mph NW3.4 kmh NW 5.6 mph9.0 kmh 30.13 in1020.3 mb 0.00 in0.0 mm 0.00 in0.0 mm 0.00 in0.0 mm
01:25 PM 79.4°F26.3°C 50.1°F10.1°C 36% 2.0 mph NNW3.2 kmh NNW 6.1 mph9.8 kmh 30.13 in1020.3 mb 0.00 in0.0 mm 0.00 in0.0 mm 0.00 in0.0 mm
01:20 PM 79.2°F26.2°C 50.2°F10.1°C 36% 2.0 mph NW3.2 kmh NW 5.8 mph9.3 kmh 30.14 in1020.7 mb 0.00 in0.0 mm 0.00 in0.0 mm 0.00 in0.0 mm
01:15 PM 78.7°F25.9°C 50.3°F10.2°C 37% 1.8 mph NW2.9 kmh NW 5.6 mph9.0 kmh 30.14 in1020.7 mb 0.00 in0.0 mm 0.00 in0.0 mm 0.00 in0.0 mm
01:10 PM 78.4°F25.8°C 50.8°F10.4°C 38% 1.4 mph W2.3 kmh W 4.9 mph7.9 kmh 30.14 in1020.7 mb 0.00 in0.0 mm 0.00 in0.0 mm 0.00 in0.0 mm
01:05 PM 77.8°F25.4°C 50.9°F10.5°C 39% 2.8 mph N4.5 kmh N 7.2 mph11.6 kmh 30.14 in1020.7 mb 0.00 in0.0 mm 0.00 in0.0 mm 0.00 in0.0 mm
01:00 PM 76.9°F24.9°C 50.3°F10.2°C 39% 2.6 mph NNW4.2 kmh NNW 5.6 mph9.0 kmh 30.14 in1020.7 mb 0.00 in0.0 mm 0.00 in0.0 mm 0.00 in0.0 mm
12:55 PM 76.9°F24.9°C 50.4°F10.2°C 39% 3.6 mph W5.8 kmh W 7.5 mph12.1 kmh 30.14 in1020.7 mb 0.00 in0.0 mm 0.00 in0.0 mm 0.00 in0.0 mm
12:50 PM 77.5°F25.3°C 51.0°F10.6°C 40% 2.0 mph WSW3.2 kmh WSW 6.1 mph9.8 kmh 30.14 in1020.7 mb 0.00 in0.0 mm 0.00 in0.0 mm 0.00 in0.0 mm
12:45 PM 77.9°F25.5°C 51.6°F10.9°C 40% 2.9 mph WSW4.7 kmh WSW 6.3 mph10.1 kmh 30.14 in1020.7 mb 0.00 in0.0 mm 0.00 in0.0 mm 0.00 in0.0 mm
12:40 PM 77.7°F25.4°C 51.5°F10.8°C 40% 2.1 mph N3.4 kmh N 7.2 mph11.6 kmh 30.14 in1020.7 mb 0.00 in0.0 mm 0.00 in0.0 mm 0.00 in0.0 mm
12:35 PM 77.3°F25.2°C 51.2°F10.7°C 40% 1.7 mph NW2.7 kmh NW 5.8 mph9.3 kmh 30.15 in1021.0 mb 0.00 in0.0 mm 0.00 in0.0 mm 0.00 in0.0 mm
12:30 PM 76.8°F24.9°C 51.3°F10.7°C 41% 2.0 mph NNW3.2 kmh NNW 4.2 mph6.8 kmh 30.15 in1021.0 mb 0.00 in0.0 mm 0.00 in0.0 mm 0.00 in0.0 mm
12:25 PM 76.4°F24.7°C 51.3°F10.7°C 42% 1.5 mph NW2.4 kmh NW 4.0 mph6.4 kmh 30.16 in1021.3 mb 0.00 in0.0 mm 0.00 in0.0 mm 0.00 in0.0 mm
12:20 PM 76.6°F24.8°C 51.9°F11.1°C 42% 1.9 mph WSW3.1 kmh WSW 4.7 mph7.6 kmh 30.16 in1021.3 mb 0.00 in0.0 mm 0.00 in0.0 mm 0.00 in0.0 mm
12:15 PM 76.5°F24.7°C 52.4°F11.3°C 43% 2.2 mph NNW3.5 kmh NNW 5.1 mph8.2 kmh 30.16 in1021.3 mb 0.00 in0.0 mm 0.00 in0.0 mm 0.00 in0.0 mm
12:10 PM 76.2°F24.6°C 52.9°F11.6°C 44% 1.7 mph W2.7 kmh W 4.7 mph7.6 kmh 30.16 in1021.3 mb 0.00 in0.0 mm 0.00 in0.0 mm 0.00 in0.0 mm
12:05 PM 76.0°F24.4°C 53.5°F11.9°C 46% 1.6 mph NW2.6 kmh NW 5.8 mph9.3 kmh 30.16 in1021.3 mb 0.00 in0.0 mm 0.00 in0.0 mm 0.00 in0.0 mm
12:00 PM 75.5°F24.2°C 53.8°F12.1°C 47% 1.7 mph NW2.7 kmh NW 6.3 mph10.1 kmh 30.16 in1021.3 mb 0.00 in0.0 mm 0.00 in0.0 mm 0.00 in0.0 mm
11:55 AM 74.9°F23.8°C 53.9°F12.2°C 48% 1.0 mph NW1.6 kmh NW 3.7 mph6.0 kmh 30.16 in1021.3 mb 0.00 in0.0 mm 0.00 in0.0 mm 0.00 in0.0 mm
11:50 AM 74.7°F23.7°C 54.8°F12.7°C 50% 2.2 mph WNW3.5 kmh WNW 5.6 mph9.0 kmh 30.16 in1021.3 mb 0.00 in0.0 mm 0.00 in0.0 mm 0.00 in0.0 mm
11:45 AM 73.9°F23.3°C 55.2°F12.9°C 52% 0.7 mph NW1.1 kmh NW 4.7 mph7.6 kmh 30.16 in1021.3 mb 0.00 in0.0 mm 0.00 in0.0 mm 0.00 in0.0 mm
11:40 AM 73.0°F22.8°C 55.1°F12.8°C 53% 1.9 mph N3.1 kmh N 4.7 mph7.6 kmh 30.16 in1021.3 mb 0.00 in0.0 mm 0.00 in0.0 mm 0.00 in0.0 mm
11:35 AM 72.6°F22.6°C 55.0°F12.8°C 54% 1.9 mph NW3.1 kmh NW 4.2 mph6.8 kmh 30.17 in1021.7 mb 0.00 in0.0 mm 0.00 in0.0 mm 0.00 in0.0 mm
11:30 AM 72.6°F22.6°C 55.3°F12.9°C 55% 1.8 mph NW2.9 kmh NW 5.6 mph9.0 kmh 30.17 in1021.7 mb 0.00 in0.0 mm 0.00 in0.0 mm 0.00 in0.0 mm
11:25 AM 73.0°F22.8°C 55.9°F13.3°C 55% 2.6 mph NW4.2 kmh NW 7.2 mph11.6 kmh 30.18 in1022.0 mb 0.00 in0.0 mm 0.00 in0.0 mm 0.00 in0.0 mm
11:20 AM 72.9°F22.7°C 55.9°F13.3°C 55% 3.0 mph N4.8 kmh N 6.3 mph10.1 kmh 30.17 in1021.7 mb 0.00 in0.0 mm 0.00 in0.0 mm 0.00 in0.0 mm
11:15 AM 72.2°F22.3°C 56.4°F13.6°C 58% 3.1 mph N5.0 kmh N 6.1 mph9.8 kmh 30.18 in1022.0 mb 0.00 in0.0 mm 0.00 in0.0 mm 0.00 in0.0 mm
11:10 AM 71.8°F22.1°C 56.7°F13.7°C 59% 0.6 mph WNW1.0 kmh WNW 3.5 mph5.6 kmh 30.18 in1022.0 mb 0.00 in0.0 mm 0.00 in0.0 mm 0.00 in0.0 mm
11:05 AM 71.8°F22.1°C 56.0°F13.3°C 58% 1.9 mph NE3.1 kmh NE 4.2 mph6.8 kmh 30.18 in1022.0 mb 0.00 in0.0 mm 0.00 in0.0 mm 0.00 in0.0 mm
11:00 AM 71.5°F21.9°C 55.6°F13.1°C 57% 3.0 mph NNE4.8 kmh NNE 5.6 mph9.0 kmh 30.18 in1022.0 mb 0.00 in0.0 mm 0.00 in0.0 mm 0.00 in0.0 mm
10:55 AM 71.1°F21.7°C 56.2°F13.4°C 59% 2.1 mph N3.4 kmh N 4.7 mph7.6 kmh 30.18 in1022.0 mb 0.00 in0.0 mm 0.00 in0.0 mm 0.00 in0.0 mm
10:50 AM 70.7°F21.5°C 56.8°F13.8°C 61% 2.3 mph N3.7 kmh N 4.2 mph6.8 kmh 30.18 in1022.0 mb 0.00 in0.0 mm 0.00 in0.0 mm 0.00 in0.0 mm
10:45 AM 70.2°F21.2°C 56.6°F13.7°C 62% 1.3 mph NNE2.1 kmh NNE 3.7 mph6.0 kmh 30.18 in1022.0 mb 0.00 in0.0 mm 0.00 in0.0 mm 0.00 in0.0 mm
10:40 AM 69.9°F21.1°C 56.0°F13.3°C 61% 1.7 mph N2.7 kmh N 4.4 mph7.1 kmh 30.18 in1022.0 mb 0.00 in0.0 mm 0.00 in0.0 mm 0.00 in0.0 mm
10:35 AM 70.1°F21.2°C 55.3°F12.9°C 59% 2.1 mph NE3.4 kmh NE 3.7 mph6.0 kmh 30.18 in1022.0 mb 0.00 in0.0 mm 0.00 in0.0 mm 0.00 in0.0 mm
10:30 AM 70.1°F21.2°C 54.4°F12.4°C 58% 2.5 mph N4.0 kmh N 4.9 mph7.9 kmh 30.18 in1022.0 mb 0.00 in0.0 mm 0.00 in0.0 mm 0.00 in0.0 mm
10:25 AM 69.6°F20.9°C 54.4°F12.4°C 59% 1.8 mph N2.9 kmh N 4.7 mph7.6 kmh 30.18 in1022.0 mb 0.00 in0.0 mm 0.00 in0.0 mm 0.00 in0.0 mm
10:20 AM 68.9°F20.5°C 54.7°F12.6°C 60% 2.1 mph N3.4 kmh N 5.6 mph9.0 kmh 30.18 in1022.0 mb 0.00 in0.0 mm 0.00 in0.0 mm 0.00 in0.0 mm
10:15 AM 68.4°F20.2°C 55.1°F12.8°C 63% 0.4 mph N0.6 kmh N 4.2 mph6.8 kmh 30.18 in1022.0 mb 0.00 in0.0 mm 0.00 in0.0 mm 0.00 in0.0 mm
10:10 AM 67.7°F19.8°C 55.7°F13.2°C 65% 1.8 mph NW2.9 kmh NW 5.1 mph8.2 kmh 30.18 in1022.0 mb 0.00 in0.0 mm 0.00 in0.0 mm 0.00 in0.0 mm
10:05 AM 66.7°F19.3°C 56.4°F13.6°C 69% 1.6 mph N2.6 kmh N 3.3 mph5.3 kmh 30.18 in1022.0 mb 0.00 in0.0 mm 0.00 in0.0 mm 0.00 in0.0 mm
10:00 AM 66.0°F18.9°C 57.6°F14.2°C 74% 1.3 mph NW2.1 kmh NW 3.5 mph5.6 kmh 30.18 in1022.0 mb 0.00 in0.0 mm 0.00 in0.0 mm 0.00 in0.0 mm
09:55 AM 65.6°F18.7°C 59.0°F15.0°C 79% 0.7 mph NW1.1 kmh NW 3.0 mph4.8 kmh 30.19 in1022.4 mb 0.00 in0.0 mm 0.00 in0.0 mm 0.00 in0.0 mm
09:50 AM 64.7°F18.2°C 60.1°F15.6°C 85% 1.4 mph NW2.3 kmh NW 3.3 mph5.3 kmh 30.19 in1022.4 mb 0.00 in0.0 mm 0.00 in0.0 mm 0.00 in0.0 mm
09:45 AM 63.5°F17.5°C 60.1°F15.6°C 89% 0.8 mph N1.3 kmh N 3.0 mph4.8 kmh 30.19 in1022.4 mb 0.00 in0.0 mm 0.00 in0.0 mm 0.00 in0.0 mm
09:40 AM 62.4°F16.9°C 58.3°F14.6°C 87% 0.2 mph NW0.3 kmh NW 2.1 mph3.4 kmh 30.19 in1022.4 mb 0.00 in0.0 mm 0.00 in0.0 mm 0.00 in0.0 mm
09:35 AM 61.4°F16.3°C 56.5°F13.6°C 84% 0.1 mph WSW0.2 kmh WSW 1.9 mph3.1 kmh 30.19 in1022.4 mb 0.00 in0.0 mm 0.00 in0.0 mm 0.00 in0.0 mm
09:30 AM 60.4°F15.8°C 55.6°F13.1°C 84% 0.3 mph WSW0.5 kmh WSW 2.1 mph3.4 kmh 30.19 in1022.4 mb 0.00 in0.0 mm 0.00 in0.0 mm 0.00 in0.0 mm
09:25 AM 59.4°F15.2°C 55.3°F12.9°C 86% 0.7 mph WSW1.1 kmh WSW 3.3 mph5.3 kmh 30.19 in1022.4 mb 0.00 in0.0 mm 0.00 in0.0 mm 0.00 in0.0 mm
09:20 AM 58.7°F14.8°C 55.0°F12.8°C 88% 0.3 mph WSW0.5 kmh WSW 2.3 mph3.7 kmh 30.19 in1022.4 mb 0.00 in0.0 mm 0.00 in0.0 mm 0.00 in0.0 mm
09:15 AM 57.9°F14.4°C 54.6°F12.6°C 89% 0.3 mph WSW0.5 kmh WSW 1.6 mph2.6 kmh 30.19 in1022.4 mb 0.00 in0.0 mm 0.00 in0.0 mm 0.00 in0.0 mm
09:10 AM 57.1°F13.9°C 54.2°F12.3°C 90% 0.7 mph WSW1.1 kmh WSW 2.6 mph4.2 kmh 30.19 in1022.4 mb 0.00 in0.0 mm 0.00 in0.0 mm 0.00 in0.0 mm
09:05 AM 56.1°F13.4°C 53.5°F11.9°C 91% Calm Calm -- 30.19 in1022.4 mb 0.00 in0.0 mm 0.00 in0.0 mm 0.00 in0.0 mm
09:00 AM 54.8°F12.7°C 52.5°F11.4°C 92% Calm Calm -- 30.18 in1022.0 mb 0.00 in0.0 mm 0.00 in0.0 mm 0.00 in0.0 mm
08:55 AM 53.7°F12.1°C 51.6°F10.9°C 93% Calm Calm -- 30.18 in1022.0 mb 0.00 in0.0 mm 0.00 in0.0 mm 0.00 in0.0 mm
08:50 AM 53.1°F11.7°C 51.2°F10.7°C 93% Calm Calm -- 30.18 in1022.0 mb 0.00 in0.0 mm 0.00 in0.0 mm 0.00 in0.0 mm
08:45 AM 52.5°F11.4°C 50.9°F10.5°C 94% Calm Calm -- 30.18 in1022.0 mb 0.00 in0.0 mm 0.00 in0.0 mm 0.00 in0.0 mm
08:40 AM 51.8°F11.0°C 50.4°F10.2°C 95% Calm Calm -- 30.18 in1022.0 mb 0.00 in0.0 mm 0.00 in0.0 mm 0.00 in0.0 mm
08:35 AM 51.2°F10.7°C 49.9°F9.9°C 96% Calm Calm -- 30.18 in1022.0 mb 0.00 in0.0 mm 0.00 in0.0 mm 0.00 in0.0 mm
08:30 AM 50.4°F10.2°C 49.3°F9.6°C 96% Calm Calm -- 30.17 in1021.7 mb 0.00 in0.0 mm 0.00 in0.0 mm 0.00 in0.0 mm
08:25 AM 49.7°F9.8°C 48.8°F9.3°C 97% Calm Calm -- 30.17 in1021.7 mb 0.00 in0.0 mm 0.00 in0.0 mm 0.00 in0.0 mm
08:20 AM 49.2°F9.6°C 48.4°F9.1°C 97% Calm Calm -- 30.17 in1021.7 mb 0.00 in0.0 mm 0.00 in0.0 mm 0.00 in0.0 mm
08:15 AM 48.7°F9.3°C 47.9°F8.8°C 97% Calm Calm -- 30.17 in1021.7 mb 0.00 in0.0 mm 0.00 in0.0 mm 0.00 in0.0 mm
08:10 AM 48.4°F9.1°C 47.5°F8.6°C 97% Calm Calm -- 30.17 in1021.7 mb 0.00 in0.0 mm 0.00 in0.0 mm 0.00 in0.0 mm
08:05 AM 48.1°F8.9°C 47.3°F8.5°C 97% Calm Calm -- 30.16 in1021.3 mb 0.00 in0.0 mm 0.00 in0.0 mm 0.00 in0.0 mm
08:00 AM 47.9°F8.8°C 47.0°F8.3°C 97% Calm Calm -- 30.16 in1021.3 mb 0.00 in0.0 mm 0.00 in0.0 mm 0.00 in0.0 mm
07:55 AM 47.7°F8.7°C 46.6°F8.1°C 96% Calm Calm -- 30.16 in1021.3 mb 0.00 in0.0 mm 0.00 in0.0 mm 0.00 in0.0 mm
07:50 AM 47.5°F8.6°C 46.4°F8.0°C 96% Calm Calm -- 30.16 in1021.3 mb 0.00 in0.0 mm 0.00 in0.0 mm 0.00 in0.0 mm
07:45 AM 47.3°F8.5°C 46.2°F7.9°C 96% Calm Calm -- 30.16 in1021.3 mb 0.00 in0.0 mm 0.00 in0.0 mm 0.00 in0.0 mm
07:40 AM 47.3°F8.5°C 46.2°F7.9°C 96% Calm Calm -- 30.16 in1021.3 mb 0.00 in0.0 mm 0.00 in0.0 mm 0.00 in0.0 mm
07:35 AM 47.4°F8.6°C 46.3°F7.9°C 96% Calm Calm -- 30.16 in1021.3 mb 0.00 in0.0 mm 0.00 in0.0 mm 0.00 in0.0 mm
07:30 AM 47.4°F8.6°C 46.3°F7.9°C 96% Calm Calm -- 30.16 in1021.3 mb 0.00 in0.0 mm 0.00 in0.0 mm 0.00 in0.0 mm
07:25 AM 47.4°F8.6°C 46.3°F7.9°C 96% Calm Calm -- 30.16 in1021.3 mb 0.00 in0.0 mm 0.00 in0.0 mm 0.00 in0.0 mm
07:20 AM 47.2°F8.4°C 46.1°F7.8°C 96% Calm Calm -- 30.15 in1021.0 mb 0.00 in0.0 mm 0.00 in0.0 mm 0.00 in0.0 mm
07:15 AM 47.0°F8.3°C 45.9°F7.7°C 96% Calm Calm -- 30.15 in1021.0 mb 0.00 in0.0 mm 0.00 in0.0 mm 0.00 in0.0 mm
07:10 AM 46.9°F8.3°C 45.8°F7.7°C 96% Calm Calm -- 30.15 in1021.0 mb 0.00 in0.0 mm 0.00 in0.0 mm 0.00 in0.0 mm
07:05 AM 46.8°F8.2°C 45.5°F7.5°C 95% Calm Calm -- 30.15 in1021.0 mb 0.00 in0.0 mm 0.00 in0.0 mm 0.00 in0.0 mm
07:00 AM 46.7°F8.2°C 45.4°F7.4°C 95% Calm Calm -- 30.15 in1021.0 mb 0.00 in0.0 mm 0.00 in0.0 mm 0.00 in0.0 mm
06:55 AM 47.1°F8.4°C 45.8°F7.7°C 95% Calm Calm -- 30.15 in1021.0 mb 0.00 in0.0 mm 0.00 in0.0 mm 0.00 in0.0 mm
06:50 AM 47.5°F8.6°C 46.4°F8.0°C 96% Calm Calm -- 30.15 in1021.0 mb 0.00 in0.0 mm 0.00 in0.0 mm 0.00 in0.0 mm
06:45 AM 47.7°F8.7°C 46.6°F8.1°C 96% Calm Calm -- 30.14 in1020.7 mb 0.00 in0.0 mm 0.00 in0.0 mm 0.00 in0.0 mm
06:40 AM 47.7°F8.7°C 46.6°F8.1°C 96% Calm Calm -- 30.14 in1020.7 mb 0.00 in0.0 mm 0.00 in0.0 mm 0.00 in0.0 mm
06:35 AM 47.8°F8.8°C 46.7°F8.2°C 96% Calm Calm -- 30.14 in1020.7 mb 0.00 in0.0 mm 0.00 in0.0 mm 0.00 in0.0 mm
06:30 AM 47.8°F8.8°C 46.6°F8.1°C 96% Calm Calm -- 30.14 in1020.7 mb 0.00 in0.0 mm 0.00 in0.0 mm 0.00 in0.0 mm
06:25 AM 47.6°F8.7°C 46.2°F7.9°C 95% Calm Calm -- 30.14 in1020.7 mb 0.00 in0.0 mm 0.00 in0.0 mm 0.00 in0.0 mm
06:20 AM 47.6°F8.7°C 46.2°F7.9°C 95% Calm Calm -- 30.14 in1020.7 mb 0.00 in0.0 mm 0.00 in0.0 mm 0.00 in0.0 mm
06:15 AM 47.8°F8.8°C 46.4°F8.0°C 95% Calm Calm -- 30.14 in1020.7 mb 0.00 in0.0 mm 0.00 in0.0 mm 0.00 in0.0 mm
06:10 AM 48.0°F8.9°C 46.6°F8.1°C 95% Calm Calm -- 30.14 in1020.7 mb 0.00 in0.0 mm 0.00 in0.0 mm 0.00 in0.0 mm
06:05 AM 48.1°F8.9°C 46.7°F8.2°C 95% Calm Calm -- 30.14 in1020.7 mb 0.00 in0.0 mm 0.00 in0.0 mm 0.00 in0.0 mm
06:00 AM 48.0°F8.9°C 46.7°F8.2°C 95% Calm Calm -- 30.14 in1020.7 mb 0.00 in0.0 mm 0.00 in0.0 mm 0.00 in0.0 mm
05:55 AM 47.9°F8.8°C 46.5°F8.1°C 95% Calm Calm -- 30.14 in1020.7 mb 0.00 in0.0 mm 0.00 in0.0 mm 0.00 in0.0 mm
05:50 AM 47.9°F8.8°C 46.5°F8.1°C 95% Calm Calm -- 30.14 in1020.7 mb 0.00 in0.0 mm 0.00 in0.0 mm 0.00 in0.0 mm
05:45 AM 48.0°F8.9°C 46.5°F8.1°C 94% Calm Calm -- 30.14 in1020.7 mb 0.00 in0.0 mm 0.00 in0.0 mm 0.00 in0.0 mm
05:40 AM 47.8°F8.8°C 46.2°F7.9°C 94% Calm Calm -- 30.14 in1020.7 mb 0.00 in0.0 mm 0.00 in0.0 mm 0.00 in0.0 mm
05:35 AM 47.8°F8.8°C 46.1°F7.8°C 94% Calm Calm -- 30.14 in1020.7 mb 0.00 in0.0 mm 0.00 in0.0 mm 0.00 in0.0 mm
05:30 AM 48.0°F8.9°C 46.3°F7.9°C 94% Calm Calm -- 30.14 in1020.7 mb 0.00 in0.0 mm 0.00 in0.0 mm 0.00 in0.0 mm
05:25 AM 48.1°F8.9°C 46.5°F8.1°C 94% Calm Calm -- 30.14 in1020.7 mb 0.00 in0.0 mm 0.00 in0.0 mm 0.00 in0.0 mm
05:20 AM 48.3°F9.1°C 46.6°F8.1°C 94% Calm Calm -- 30.14 in1020.7 mb 0.00 in0.0 mm 0.00 in0.0 mm 0.00 in0.0 mm
05:15 AM 48.4°F9.1°C 46.8°F8.2°C 94% Calm Calm -- 30.14 in1020.7 mb 0.00 in0.0 mm 0.00 in0.0 mm 0.00 in0.0 mm
05:10 AM 48.4°F9.1°C 46.8°F8.2°C 94% Calm Calm -- 30.14 in1020.7 mb 0.00 in0.0 mm 0.00 in0.0 mm 0.00 in0.0 mm
05:05 AM 48.5°F9.2°C 46.9°F8.3°C 94% Calm Calm -- 30.14 in1020.7 mb 0.00 in0.0 mm 0.00 in0.0 mm 0.00 in0.0 mm
05:00 AM 48.7°F9.3°C 46.9°F8.3°C 93% Calm Calm -- 30.14 in1020.7 mb 0.00 in0.0 mm 0.00 in0.0 mm 0.00 in0.0 mm
04:55 AM 48.5°F9.2°C 46.6°F8.1°C 93% Calm Calm -- 30.14 in1020.7 mb 0.00 in0.0 mm 0.00 in0.0 mm 0.00 in0.0 mm
04:50 AM 48.2°F9.0°C 46.3°F7.9°C 93% Calm Calm -- 30.14 in1020.7 mb 0.00 in0.0 mm 0.00 in0.0 mm 0.00 in0.0 mm
04:45 AM 48.3°F9.1°C 46.4°F8.0°C 93% Calm Calm -- 30.14 in1020.7 mb 0.00 in0.0 mm 0.00 in0.0 mm 0.00 in0.0 mm
04:40 AM 48.6°F9.2°C 46.6°F8.1°C 93% Calm Calm -- 30.14 in1020.7 mb 0.00 in0.0 mm 0.00 in0.0 mm 0.00 in0.0 mm
04:35 AM 48.7°F9.3°C 46.8°F8.2°C 93% Calm Calm -- 30.14 in1020.7 mb 0.00 in0.0 mm 0.00 in0.0 mm 0.00 in0.0 mm
04:30 AM 48.9°F9.4°C 46.9°F8.3°C 93% Calm Calm -- 30.14 in1020.7 mb 0.00 in0.0 mm 0.00 in0.0 mm 0.00 in0.0 mm
04:25 AM 48.8°F9.3°C 46.9°F8.3°C 93% Calm Calm -- 30.13 in1020.3 mb 0.00 in0.0 mm 0.00 in0.0 mm 0.00 in0.0 mm
04:20 AM 48.7°F9.3°C 46.7°F8.2°C 93% Calm Calm -- 30.14 in1020.7 mb 0.00 in0.0 mm 0.00 in0.0 mm 0.00 in0.0 mm
04:15 AM 48.5°F9.2°C 46.4°F8.0°C 92% Calm Calm -- 30.14 in1020.7 mb 0.00 in0.0 mm 0.00 in0.0 mm 0.00 in0.0 mm
04:10 AM 48.4°F9.1°C 46.2°F7.9°C 92% Calm Calm -- 30.14 in1020.7 mb 0.00 in0.0 mm 0.00 in0.0 mm 0.00 in0.0 mm
04:05 AM 48.5°F9.2°C 46.3°F7.9°C 92% Calm Calm -- 30.14 in1020.7 mb 0.00 in0.0 mm 0.00 in0.0 mm 0.00 in0.0 mm
04:00 AM 48.8°F9.3°C 46.5°F8.1°C 92% Calm Calm -- 30.14 in1020.7 mb 0.00 in0.0 mm 0.00 in0.0 mm 0.00 in0.0 mm
03:55 AM 49.0°F9.4°C 46.8°F8.2°C 92% Calm Calm -- 30.14 in1020.7 mb 0.00 in0.0 mm 0.00 in0.0 mm 0.00 in0.0 mm
03:50 AM 49.1°F9.5°C 46.7°F8.2°C 91% Calm Calm -- 30.14 in1020.7 mb 0.00 in0.0 mm 0.00 in0.0 mm 0.00 in0.0 mm
03:45 AM 49.0°F9.4°C 46.5°F8.1°C 91% Calm Calm -- 30.13 in1020.3 mb 0.00 in0.0 mm 0.00 in0.0 mm 0.00 in0.0 mm
03:40 AM 49.0°F9.4°C 46.5°F8.1°C 91% Calm Calm -- 30.13 in1020.3 mb 0.00 in0.0 mm 0.00 in0.0 mm 0.00 in0.0 mm
03:35 AM 49.2°F9.6°C 46.7°F8.2°C 91% Calm Calm -- 30.13 in1020.3 mb 0.00 in0.0 mm 0.00 in0.0 mm 0.00 in0.0 mm
03:30 AM 49.6°F9.8°C 47.1°F8.4°C 91% Calm Calm -- 30.13 in1020.3 mb 0.00 in0.0 mm 0.00 in0.0 mm 0.00 in0.0 mm
03:25 AM 49.7°F9.8°C 47.2°F8.4°C 91% Calm Calm -- 30.13 in1020.3 mb 0.00 in0.0 mm 0.00 in0.0 mm 0.00 in0.0 mm
03:20 AM 49.7°F9.8°C 47.3°F8.5°C 92% Calm Calm -- 30.14 in1020.7 mb 0.00 in0.0 mm 0.00 in0.0 mm 0.00 in0.0 mm
03:15 AM 49.7°F9.8°C 47.2°F8.4°C 91% Calm Calm -- 30.14 in1020.7 mb 0.00 in0.0 mm 0.00 in0.0 mm 0.00 in0.0 mm
03:10 AM 49.6°F9.8°C 47.1°F8.4°C 91% Calm Calm -- 30.14 in1020.7 mb 0.00 in0.0 mm 0.00 in0.0 mm 0.00 in0.0 mm
03:05 AM 49.7°F9.8°C 47.2°F8.4°C 91% Calm Calm -- 30.14 in1020.7 mb 0.00 in0.0 mm 0.00 in0.0 mm 0.00 in0.0 mm
03:00 AM 49.6°F9.8°C 47.1°F8.4°C 91% Calm Calm -- 30.14 in1020.7 mb 0.00 in0.0 mm 0.00 in0.0 mm 0.00 in0.0 mm
02:55 AM 49.4°F9.7°C 46.7°F8.2°C 90% Calm Calm -- 30.14 in1020.7 mb 0.00 in0.0 mm 0.00 in0.0 mm 0.00 in0.0 mm
02:50 AM 49.3°F9.6°C 46.5°F8.1°C 90% Calm Calm -- 30.14 in1020.7 mb 0.00 in0.0 mm 0.00 in0.0 mm 0.00 in0.0 mm
02:45 AM 49.6°F9.8°C 46.8°F8.2°C 90% Calm Calm -- 30.14 in1020.7 mb 0.00 in0.0 mm 0.00 in0.0 mm 0.00 in0.0 mm
02:40 AM 49.9°F9.9°C 47.1°F8.4°C 90% Calm Calm -- 30.14 in1020.7 mb 0.00 in0.0 mm 0.00 in0.0 mm 0.00 in0.0 mm
02:35 AM 50.1°F10.1°C 47.3°F8.5°C 90% Calm Calm -- 30.13 in1020.3 mb 0.00 in0.0 mm 0.00 in0.0 mm 0.00 in0.0 mm
02:30 AM 50.2°F10.1°C 47.4°F8.6°C 90% Calm Calm -- 30.13 in1020.3 mb 0.00 in0.0 mm 0.00 in0.0 mm 0.00 in0.0 mm
02:25 AM 50.1°F10.1°C 47.2°F8.4°C 90% Calm Calm -- 30.13 in1020.3 mb 0.00 in0.0 mm 0.00 in0.0 mm 0.00 in0.0 mm
02:20 AM 50.0°F10.0°C 46.9°F8.3°C 89% Calm Calm -- 30.13 in1020.3 mb 0.00 in0.0 mm 0.00 in0.0 mm 0.00 in0.0 mm
02:15 AM 50.1°F10.1°C 47.0°F8.3°C 89% Calm Calm -- 30.13 in1020.3 mb 0.00 in0.0 mm 0.00 in0.0 mm 0.00 in0.0 mm
02:10 AM 50.4°F10.2°C 47.0°F8.3°C 88% Calm Calm -- 30.14 in1020.7 mb 0.00 in0.0 mm 0.00 in0.0 mm 0.00 in0.0 mm
02:05 AM 50.6°F10.3°C 47.2°F8.4°C 88% Calm Calm -- 30.14 in1020.7 mb 0.00 in0.0 mm 0.00 in0.0 mm 0.00 in0.0 mm
02:00 AM 50.8°F10.4°C 47.4°F8.6°C 88% Calm Calm -- 30.14 in1020.7 mb 0.00 in0.0 mm 0.00 in0.0 mm 0.00 in0.0 mm
01:55 AM 51.2°F10.7°C 47.7°F8.7°C 88% Calm Calm -- 30.13 in1020.3 mb 0.00 in0.0 mm 0.00 in0.0 mm 0.00 in0.0 mm
01:50 AM 51.3°F10.7°C 47.9°F8.8°C 88% Calm Calm -- 30.13 in1020.3 mb 0.00 in0.0 mm 0.00 in0.0 mm 0.00 in0.0 mm
01:45 AM 51.2°F10.7°C 47.7°F8.7°C 88% Calm Calm -- 30.13 in1020.3 mb 0.00 in0.0 mm 0.00 in0.0 mm 0.00 in0.0 mm
01:40 AM 51.0°F10.6°C 47.6°F8.7°C 88% Calm Calm -- 30.14 in1020.7 mb 0.00 in0.0 mm 0.00 in0.0 mm 0.00 in0.0 mm
01:35 AM 51.0°F10.6°C 47.3°F8.5°C 87% Calm Calm -- 30.13 in1020.3 mb 0.00 in0.0 mm 0.00 in0.0 mm 0.00 in0.0 mm
01:30 AM 51.1°F10.6°C 47.3°F8.5°C 87% Calm Calm -- 30.13 in1020.3 mb 0.00 in0.0 mm 0.00 in0.0 mm 0.00 in0.0 mm
01:25 AM 51.3°F10.7°C 47.5°F8.6°C 87% Calm Calm -- 30.14 in1020.7 mb 0.00 in0.0 mm 0.00 in0.0 mm 0.00 in0.0 mm
01:20 AM 51.4°F10.8°C 47.4°F8.6°C 86% Calm Calm -- 30.13 in1020.3 mb 0.00 in0.0 mm 0.00 in0.0 mm 0.00 in0.0 mm
01:15 AM 51.5°F10.8°C 47.4°F8.6°C 86% Calm Calm -- 30.13 in1020.3 mb 0.00 in0.0 mm 0.00 in0.0 mm 0.00 in0.0 mm
01:10 AM 51.6°F10.9°C 47.5°F8.6°C 86% Calm Calm -- 30.13 in1020.3 mb 0.00 in0.0 mm 0.00 in0.0 mm 0.00 in0.0 mm
01:05 AM 51.6°F10.9°C 47.5°F8.6°C 86% Calm Calm -- 30.13 in1020.3 mb 0.00 in0.0 mm 0.00 in0.0 mm 0.00 in0.0 mm
01:00 AM 51.6°F10.9°C 47.2°F8.4°C 85% Calm Calm -- 30.13 in1020.3 mb 0.00 in0.0 mm 0.00 in0.0 mm 0.00 in0.0 mm
12:55 AM 51.7°F10.9°C 47.0°F8.3°C 84% Calm Calm -- 30.13 in1020.3 mb 0.00 in0.0 mm 0.00 in0.0 mm 0.00 in0.0 mm
12:50 AM 52.1°F11.2°C 47.4°F8.6°C 84% Calm Calm -- 30.13 in1020.3 mb 0.00 in0.0 mm 0.00 in0.0 mm 0.00 in0.0 mm
12:45 AM 52.5°F11.4°C 47.8°F8.8°C 84% Calm Calm -- 30.13 in1020.3 mb 0.00 in0.0 mm 0.00 in0.0 mm 0.00 in0.0 mm
12:40 AM 52.7°F11.5°C 48.0°F8.9°C 84% Calm Calm -- 30.13 in1020.3 mb 0.00 in0.0 mm 0.00 in0.0 mm 0.00 in0.0 mm
12:35 AM 52.7°F11.5°C 48.0°F8.9°C 84% Calm Calm -- 30.13 in1020.3 mb 0.00 in0.0 mm 0.00 in0.0 mm 0.00 in0.0 mm
12:30 AM 52.7°F11.5°C 48.0°F8.9°C 84% Calm Calm -- 30.14 in1020.7 mb 0.00 in0.0 mm 0.00 in0.0 mm 0.00 in0.0 mm
12:25 AM 52.8°F11.6°C 48.1°F8.9°C 84% Calm Calm -- 30.14 in1020.7 mb 0.00 in0.0 mm 0.00 in0.0 mm 0.00 in0.0 mm
12:20 AM 53.0°F11.7°C 48.3°F9.1°C 84% Calm Calm -- 30.14 in1020.7 mb 0.00 in0.0 mm 0.00 in0.0 mm 0.00 in0.0 mm
12:15 AM 53.2°F11.8°C 48.5°F9.2°C 84% Calm Calm -- 30.15 in1021.0 mb 0.00 in0.0 mm 0.00 in0.0 mm 0.00 in0.0 mm
12:10 AM 53.1°F11.7°C 48.4°F9.1°C 84% Calm Calm -- 30.15 in1021.0 mb 0.00 in0.0 mm 0.00 in0.0 mm 0.00 in0.0 mm
12:05 AM 53.1°F11.7°C 48.1°F8.9°C 83% Calm Calm -- 30.15 in1021.0 mb 0.00 in0.0 mm 0.00 in0.0 mm 0.00 in0.0 mm
12:00 AM 53.2°F11.8°C 48.2°F9.0°C 83% Calm Calm -- 30.15 in1021.0 mb 0.00 in0.0 mm 0.00 in0.0 mm 0.00 in0.0 mm